Dessau, Texas
Current Conditions -  °F | °C
As of 8:35 AM on Saturday 22 Nov 2014 (Local Time) from KEDC Reporting Station
Broken Clouds Broken Clouds  
Wind Chill: 18°   Ceiling: 8000
Heat Index: 18°   Visibility: 9mi
Dew Point: 17°   Wind: 14mph
Humidity: 94%   Direction: 140°SE
Pressure: 30.03"   Gusts: NA
Location:  30.3795°N, 97.676°W
Report Text: KEDC 221435Z AUTO 14012KT 9SM SCT010 BKN080 BKN095 18/17 A3003 RMK AO2
Loading
Personal Weather Stations






























Interactive Weather Map New forecast layout! Learn more

10-Day Weather Forecast

Advertisements
Track Severe Weather on mobile